createdAt,value
2023-03-29T00:02:20.043Z,93.31
2023-03-29T00:04:47.413Z,93.66
2023-03-29T00:07:14.726Z,93.94
2023-03-29T00:09:42.734Z,94.27
2023-03-29T00:12:11.729Z,94.54
2023-03-29T00:14:38.691Z,94.58
2023-03-29T00:17:06.726Z,95.27
2023-03-29T00:19:36.828Z,95.34
2023-03-29T00:22:06.176Z,95.36
2023-03-29T00:24:33.405Z,95.23
2023-03-29T00:27:01.148Z,94.72
2023-03-29T00:29:28.368Z,94.86
2023-03-29T00:31:56.242Z,94.45
2023-03-29T00:34:25.122Z,94.47
2023-03-29T00:36:53.283Z,94.54
2023-03-29T00:39:24.199Z,94.56
2023-03-29T00:41:51.788Z,94.23
2023-03-29T00:44:53.096Z,94.42
2023-03-29T00:47:25.667Z,94.31
2023-03-29T00:49:53.521Z,94.10
2023-03-29T00:52:21.862Z,94.78
2023-03-29T00:54:56.334Z,94.75
2023-03-29T00:57:25.876Z,94.92
2023-03-29T00:59:55.731Z,95.28
2023-03-29T01:02:27.039Z,95.47
2023-03-29T01:05:17.595Z,95.83
2023-03-29T01:07:54.171Z,96.11
2023-03-29T01:10:26.526Z,96.54
2023-03-29T01:12:58.679Z,96.21
2023-03-29T01:15:27.903Z,95.92
2023-03-29T01:17:58.335Z,96.04
2023-03-29T01:20:30.995Z,95.78
2023-03-29T01:23:26.986Z,96.13
2023-03-29T01:26:01.888Z,96.16
2023-03-29T01:28:37.430Z,96.15
2023-03-29T01:31:08.925Z,96.53
2023-03-29T01:33:41.818Z,96.68
2023-03-29T01:36:30.904Z,96.52
2023-03-29T01:39:00.986Z,96.95
2023-03-29T01:41:50.635Z,96.92
2023-03-29T01:44:39.708Z,96.47
2023-03-29T01:47:36.644Z,96.92
2023-03-29T01:50:20.382Z,97.26
2023-03-29T01:52:52.764Z,97.01
2023-03-29T01:55:36.154Z,96.94
2023-03-29T01:58:05.061Z,97.19
2023-03-29T02:00:34.421Z,96.94
2023-03-29T02:03:06.123Z,97.12
2023-03-29T02:05:34.712Z,96.88
2023-03-29T02:08:03.686Z,96.65
2023-03-29T02:10:32.454Z,96.72
2023-03-29T02:12:59.907Z,96.73
2023-03-29T02:15:27.354Z,96.72
2023-03-29T02:17:54.965Z,96.25
2023-03-29T02:20:28.772Z,95.36
2023-03-29T02:22:56.329Z,94.50
2023-03-29T02:25:24.671Z,93.35
2023-03-29T02:27:52.996Z,92.96
2023-03-29T02:30:21.236Z,92.82
2023-03-29T02:32:57.518Z,92.45
2023-03-29T02:35:34.788Z,92.19
2023-03-29T02:38:09.084Z,91.74
2023-03-29T02:40:37.802Z,91.64
2023-03-29T02:43:07.170Z,91.37
2023-03-29T02:45:36.686Z,92.26
2023-03-29T02:48:06.719Z,92.30
2023-03-29T02:50:38.090Z,92.92
2023-03-29T02:53:14.179Z,93.17
2023-03-29T02:55:41.613Z,92.69
2023-03-29T02:58:08.630Z,92.96
2023-03-29T03:00:44.816Z,93.38
2023-03-29T03:03:12.758Z,93.64
2023-03-29T03:05:40.107Z,94.01
2023-03-29T03:08:07.764Z,94.76
2023-03-29T03:10:35.769Z,95.25
2023-03-29T03:13:03.062Z,95.82
2023-03-29T03:15:31.408Z,95.76
2023-03-29T03:17:58.732Z,95.71
2023-03-29T03:20:26.655Z,95.11
2023-03-29T03:22:53.556Z,95.42
2023-03-29T03:25:21.414Z,95.31
2023-03-29T03:27:49.880Z,95.22
2023-03-29T03:30:17.823Z,95.36
2023-03-29T03:32:44.978Z,94.96
2023-03-29T03:35:12.564Z,95.53
2023-03-29T03:37:40.528Z,95.68
2023-03-29T03:40:09.323Z,95.98
2023-03-29T03:42:36.257Z,95.73
2023-03-29T03:45:03.795Z,95.32
2023-03-29T03:47:31.030Z,94.80
2023-03-29T03:49:58.433Z,94.28
2023-03-29T03:52:25.468Z,93.85
2023-03-29T03:54:53.047Z,93.42
2023-03-29T03:57:19.953Z,93.79
2023-03-29T03:59:47.813Z,93.88
2023-03-29T04:02:15.778Z,94.34
2023-03-29T04:04:43.094Z,94.26
2023-03-29T04:07:13.190Z,94.47
2023-03-29T04:09:40.570Z,94.63
2023-03-29T04:12:07.652Z,94.22
2023-03-29T04:14:35.749Z,94.11
2023-03-29T04:17:02.784Z,94.36
2023-03-29T04:19:29.975Z,94.73
2023-03-29T04:21:57.016Z,94.64
2023-03-29T04:24:25.182Z,94.62
2023-03-29T04:26:52.081Z,95.01
2023-03-29T04:29:19.493Z,95.07
2023-03-29T04:31:46.593Z,95.16
2023-03-29T04:34:13.830Z,95.16
2023-03-29T04:36:40.976Z,95.08
2023-03-29T04:39:08.445Z,95.23
2023-03-29T04:41:35.455Z,95.08
2023-03-29T04:44:02.764Z,95.23
2023-03-29T04:46:30.365Z,95.41
2023-03-29T04:48:58.862Z,95.59
2023-03-29T04:51:25.965Z,95.56
2023-03-29T04:53:53.426Z,95.57
2023-03-29T04:56:23.404Z,95.72
2023-03-29T04:58:51.357Z,95.45
2023-03-29T05:01:18.934Z,95.36
2023-03-29T05:03:46.300Z,95.79
2023-03-29T05:06:13.625Z,96.18
2023-03-29T05:08:41.475Z,96.02
2023-03-29T05:11:11.848Z,95.35
2023-03-29T05:13:39.460Z,94.67
2023-03-29T05:16:07.877Z,93.75
2023-03-29T05:18:35.893Z,93.06
2023-03-29T05:21:05.141Z,92.89
2023-03-29T05:23:32.891Z,92.11
2023-03-29T05:26:00.426Z,91.90
2023-03-29T05:28:27.786Z,91.86
2023-03-29T05:31:06.024Z,91.36
2023-03-29T05:33:33.865Z,90.39
2023-03-29T05:36:02.243Z,90.02
2023-03-29T05:38:35.193Z,89.84
2023-03-29T05:41:02.509Z,89.30
2023-03-29T05:43:29.804Z,88.81
2023-03-29T05:45:57.240Z,88.42
2023-03-29T05:48:25.496Z,88.38
2023-03-29T05:50:53.807Z,87.85
2023-03-29T05:53:22.947Z,86.13
2023-03-29T05:55:51.338Z,85.56
2023-03-29T05:58:20.337Z,85.43
2023-03-29T06:00:49.906Z,85.24
2023-03-29T06:03:21.534Z,85.57
2023-03-29T06:05:50.634Z,85.10
2023-03-29T06:08:17.893Z,85.42
2023-03-29T06:10:45.557Z,85.70
2023-03-29T06:13:12.971Z,85.76
2023-03-29T06:15:40.309Z,84.51
2023-03-29T06:18:08.059Z,83.04
2023-03-29T06:20:35.251Z,81.86
2023-03-29T06:23:02.606Z,82.66
2023-03-29T06:25:30.152Z,82.13
2023-03-29T06:27:57.895Z,82.19
2023-03-29T06:30:25.092Z,81.85
2023-03-29T06:32:52.660Z,80.19
2023-03-29T06:35:20.901Z,79.90
2023-03-29T06:37:50.933Z,79.22
2023-03-29T06:40:19.290Z,77.63
2023-03-29T06:42:47.882Z,77.45
2023-03-29T06:45:15.058Z,77.94
2023-03-29T06:47:42.592Z,75.73
2023-03-29T06:50:11.837Z,75.95
2023-03-29T06:52:39.086Z,75.16
2023-03-29T06:55:07.914Z,74.95
2023-03-29T06:57:35.680Z,73.69
2023-03-29T07:00:14.272Z,73.40
2023-03-29T07:02:42.951Z,72.35
2023-03-29T07:05:13.668Z,71.07
2023-03-29T07:07:55.535Z,71.70
2023-03-29T07:10:43.376Z,70.11
2023-03-29T07:13:14.712Z,70.42
2023-03-29T07:15:42.339Z,71.45
2023-03-29T07:18:10.157Z,69.55
2023-03-29T07:20:39.132Z,70.03
2023-03-29T07:23:08.154Z,69.14
2023-03-29T07:25:35.620Z,69.58
2023-03-29T07:28:03.750Z,66.79
2023-03-29T07:30:32.405Z,67.68
2023-03-29T07:33:00.586Z,66.19
2023-03-29T07:35:27.988Z,66.31
2023-03-29T07:37:56.100Z,65.73
2023-03-29T07:40:23.910Z,65.71
2023-03-29T07:42:54.654Z,65.07
2023-03-29T07:45:26.460Z,63.83
2023-03-29T07:47:56.649Z,64.23
2023-03-29T07:50:24.388Z,64.10
2023-03-29T07:52:51.669Z,62.92
2023-03-29T07:55:19.108Z,62.83
2023-03-29T07:57:46.628Z,64.49
2023-03-29T08:00:17.667Z,66.16
2023-03-29T08:02:46.960Z,64.37
2023-03-29T08:05:19.001Z,64.38
2023-03-29T08:07:51.350Z,64.03
2023-03-29T08:10:20.368Z,66.45
2023-03-29T08:12:48.893Z,65.08
2023-03-29T08:15:16.836Z,64.95
2023-03-29T08:17:44.826Z,65.33
2023-03-29T08:20:13.925Z,64.27
2023-03-29T08:22:41.520Z,63.76
2023-03-29T08:25:09.380Z,63.93
2023-03-29T08:27:37.825Z,64.64
2023-03-29T08:30:07.243Z,64.65
2023-03-29T08:32:34.703Z,62.63
2023-03-29T08:35:04.008Z,64.32
2023-03-29T08:37:32.827Z,64.21
2023-03-29T08:40:01.059Z,63.64
2023-03-29T08:42:42.110Z,62.48
2023-03-29T08:45:12.388Z,61.43
2023-03-29T08:48:08.759Z,62.98
2023-03-29T08:50:39.575Z,61.99
2023-03-29T08:53:41.945Z,61.96
2023-03-29T08:56:13.793Z,62.61
2023-03-29T08:58:41.675Z,61.90
2023-03-29T09:01:11.587Z,61.28
2023-03-29T09:03:48.663Z,62.44
2023-03-29T09:06:16.809Z,59.57
2023-03-29T09:08:46.760Z,60.29
2023-03-29T09:11:38.789Z,61.21
2023-03-29T09:14:24.339Z,59.50
2023-03-29T09:17:03.663Z,61.08
2023-03-29T09:19:43.134Z,60.98
2023-03-29T09:22:16.390Z,58.54
2023-03-29T09:24:47.014Z,58.16
2023-03-29T09:27:24.756Z,56.54
2023-03-29T09:30:06.328Z,57.26
2023-03-29T09:32:43.336Z,56.93
2023-03-29T09:35:18.543Z,55.41
2023-03-29T09:37:46.971Z,56.89
2023-03-29T09:40:31.443Z,57.39
2023-03-29T09:42:58.810Z,56.60
2023-03-29T09:45:26.640Z,55.19
2023-03-29T09:48:09.376Z,49.75
2023-03-29T09:50:39.302Z,51.59
2023-03-29T09:53:06.814Z,52.00
2023-03-29T09:55:36.772Z,48.20
2023-03-29T09:58:16.237Z,49.03
2023-03-29T10:00:45.138Z,49.90
2023-03-29T10:03:24.485Z,48.58
2023-03-29T10:05:55.612Z,49.42
2023-03-29T10:08:28.493Z,51.41
2023-03-29T10:11:00.480Z,50.76
2023-03-29T10:13:36.927Z,50.01
2023-03-29T10:16:04.810Z,50.45
2023-03-29T10:18:33.229Z,47.86
2023-03-29T10:21:03.756Z,48.09
2023-03-29T10:23:37.857Z,46.35
2023-03-29T10:26:09.495Z,47.43
2023-03-29T10:28:36.997Z,44.68
2023-03-29T10:31:08.470Z,50.32
2023-03-29T10:33:36.509Z,46.91
2023-03-29T10:36:07.132Z,45.33
2023-03-29T10:38:36.166Z,46.16
2023-03-29T10:41:11.769Z,47.15
2023-03-29T10:43:43.674Z,44.67
2023-03-29T10:46:36.344Z,40.71
2023-03-29T10:49:12.073Z,43.23
2023-03-29T10:51:45.212Z,47.71
2023-03-29T10:54:15.164Z,48.88
2023-03-29T10:56:47.385Z,49.88
2023-03-29T10:59:14.596Z,45.72
2023-03-29T11:02:03.805Z,47.99
2023-03-29T11:04:37.455Z,50.18
2023-03-29T11:07:31.913Z,51.23
2023-03-29T11:10:27.229Z,51.46
2023-03-29T11:13:03.853Z,53.20
2023-03-29T11:16:00.101Z,52.09
2023-03-29T11:18:27.937Z,53.04
2023-03-29T11:21:13.880Z,52.96
2023-03-29T11:23:41.850Z,52.54
2023-03-29T11:26:25.131Z,53.45
2023-03-29T11:29:19.797Z,54.76
2023-03-29T11:31:58.114Z,52.05
2023-03-29T11:34:35.048Z,52.62
2023-03-29T11:37:43.223Z,52.35
2023-03-29T11:40:21.476Z,52.37
2023-03-29T11:42:52.590Z,51.50
2023-03-29T11:45:32.935Z,50.88
2023-03-29T11:48:01.003Z,50.76
2023-03-29T11:50:47.052Z,50.84
2023-03-29T11:53:22.289Z,50.92
2023-03-29T11:55:51.703Z,51.47
2023-03-29T11:58:31.237Z,51.06
2023-03-29T12:01:03.154Z,51.43
2023-03-29T12:03:38.786Z,49.33
2023-03-29T12:06:34.154Z,50.17
2023-03-29T12:09:31.790Z,49.40
2023-03-29T12:12:09.729Z,48.65
2023-03-29T12:14:49.778Z,48.86
2023-03-29T12:17:25.294Z,49.92
2023-03-29T12:20:13.576Z,49.65
2023-03-29T12:22:41.063Z,49.51
2023-03-29T12:25:14.700Z,48.51
2023-03-29T12:28:06.977Z,49.40
2023-03-29T12:30:56.251Z,48.17
2023-03-29T12:33:36.209Z,48.05
2023-03-29T12:36:31.956Z,47.53
2023-03-29T12:38:59.721Z,47.02
2023-03-29T12:41:35.714Z,47.11
2023-03-29T12:44:04.148Z,47.30
2023-03-29T12:46:35.544Z,47.95
2023-03-29T12:49:28.304Z,47.16
2023-03-29T12:51:57.609Z,47.65
2023-03-29T12:54:28.905Z,46.33
2023-03-29T12:57:01.223Z,45.57
2023-03-29T12:59:39.954Z,45.23
2023-03-29T13:02:14.075Z,44.54
2023-03-29T13:05:00.568Z,43.59
2023-03-29T13:07:28.896Z,45.68
2023-03-29T13:10:03.607Z,46.68
2023-03-29T13:12:42.466Z,47.49
2023-03-29T13:15:17.101Z,46.56
2023-03-29T13:18:04.104Z,45.98
2023-03-29T13:20:59.543Z,45.80
2023-03-29T13:24:04.043Z,45.79
2023-03-29T13:26:57.164Z,44.67
2023-03-29T13:29:50.886Z,44.66
2023-03-29T13:32:27.306Z,43.73
2023-03-29T13:35:13.172Z,44.08
2023-03-29T13:37:57.270Z,43.63
2023-03-29T13:40:44.074Z,40.95
2023-03-29T13:43:19.607Z,40.39
2023-03-29T13:46:04.504Z,41.53
2023-03-29T13:48:57.194Z,42.76
2023-03-29T13:51:32.907Z,42.09
2023-03-29T13:54:15.156Z,42.89
2023-03-29T13:57:05.627Z,42.23
2023-03-29T13:59:48.356Z,42.37
2023-03-29T14:02:41.844Z,43.57
2023-03-29T14:05:13.351Z,43.60
2023-03-29T14:07:47.610Z,43.20
2023-03-29T14:10:18.696Z,43.60
2023-03-29T14:12:46.832Z,44.24
2023-03-29T14:15:28.863Z,43.22
2023-03-29T14:18:00.331Z,42.83
2023-03-29T14:20:31.029Z,42.36
2023-03-29T14:22:58.346Z,42.52
2023-03-29T14:25:25.955Z,43.31
2023-03-29T14:27:52.974Z,43.79
2023-03-29T14:30:24.355Z,44.66
2023-03-29T14:32:52.517Z,45.08
2023-03-29T14:35:21.915Z,44.76
2023-03-29T14:37:49.503Z,45.39
2023-03-29T14:40:20.002Z,45.61
2023-03-29T14:42:48.814Z,44.60
2023-03-29T14:45:18.102Z,44.63
2023-03-29T14:47:46.362Z,43.53
2023-03-29T14:50:19.637Z,42.98
2023-03-29T14:52:51.758Z,43.69
2023-03-29T14:55:23.956Z,44.71
2023-03-29T14:57:54.779Z,45.22
2023-03-29T15:00:22.770Z,45.03
2023-03-29T15:02:55.461Z,45.02
2023-03-29T15:05:37.362Z,45.21
2023-03-29T15:08:07.882Z,44.67
2023-03-29T15:10:37.116Z,44.34
2023-03-29T15:13:05.670Z,44.05
2023-03-29T15:15:38.666Z,44.70
2023-03-29T15:18:07.214Z,44.73
2023-03-29T15:20:38.871Z,45.47
2023-03-29T15:23:15.266Z,46.71
2023-03-29T15:26:06.683Z,45.56
2023-03-29T15:28:35.844Z,46.46
2023-03-29T15:31:10.805Z,46.04
2023-03-29T15:33:39.969Z,46.98
2023-03-29T15:36:09.875Z,47.10
2023-03-29T15:38:43.964Z,46.91
2023-03-29T15:41:14.215Z,46.78
2023-03-29T15:43:42.114Z,46.28
2023-03-29T15:46:14.227Z,46.82
2023-03-29T15:48:42.198Z,45.78
2023-03-29T15:51:12.680Z,46.23
2023-03-29T15:53:40.383Z,45.97
2023-03-29T15:56:29.634Z,46.37
2023-03-29T15:58:59.139Z,47.23
2023-03-29T16:01:39.398Z,47.13
2023-03-29T16:04:20.055Z,47.53
2023-03-29T16:06:50.160Z,47.46
2023-03-29T16:09:17.414Z,48.15
2023-03-29T16:11:45.728Z,48.21
2023-03-29T16:14:21.145Z,48.25
2023-03-29T16:16:49.184Z,47.84
2023-03-29T16:19:16.749Z,48.43
2023-03-29T16:21:45.186Z,49.05
2023-03-29T16:24:32.532Z,49.73
2023-03-29T16:27:01.870Z,50.00
2023-03-29T16:29:29.335Z,50.06
2023-03-29T16:31:57.403Z,50.39
2023-03-29T16:34:25.323Z,50.49
2023-03-29T16:36:53.202Z,50.94
2023-03-29T16:39:20.467Z,51.55
2023-03-29T16:41:49.216Z,51.43
2023-03-29T16:44:20.178Z,51.85
2023-03-29T16:46:50.912Z,51.75
2023-03-29T16:49:18.863Z,52.02
2023-03-29T16:51:47.361Z,52.08
2023-03-29T16:54:15.340Z,52.40
2023-03-29T16:56:42.883Z,51.89
2023-03-29T16:59:10.137Z,51.75
2023-03-29T17:01:38.788Z,51.79
2023-03-29T17:04:06.165Z,52.26
2023-03-29T17:06:33.418Z,52.91
2023-03-29T17:09:00.870Z,54.19
2023-03-29T17:11:29.030Z,54.87
2023-03-29T17:13:56.135Z,55.06
2023-03-29T17:16:24.116Z,55.53
2023-03-29T17:18:51.198Z,55.69
2023-03-29T17:21:18.652Z,55.52
2023-03-29T17:23:46.616Z,56.34
2023-03-29T17:26:14.385Z,56.49
2023-03-29T17:28:41.784Z,56.75
2023-03-29T17:31:09.733Z,57.69
2023-03-29T17:33:37.132Z,57.79
2023-03-29T17:36:05.852Z,58.39
2023-03-29T17:38:34.452Z,58.78
2023-03-29T17:41:03.020Z,59.45
2023-03-29T17:43:30.533Z,59.96
2023-03-29T17:45:58.265Z,60.11
2023-03-29T17:48:25.816Z,60.21
2023-03-29T17:50:55.802Z,60.53
2023-03-29T17:53:23.032Z,60.46
2023-03-29T17:55:50.427Z,60.81
2023-03-29T17:58:17.375Z,61.10
2023-03-29T18:00:45.294Z,60.98
2023-03-29T18:03:12.340Z,61.46
2023-03-29T18:05:39.732Z,61.75
2023-03-29T18:08:10.095Z,61.80
2023-03-29T18:10:37.444Z,62.16
2023-03-29T18:13:04.615Z,62.68
2023-03-29T18:15:32.058Z,62.69
2023-03-29T18:17:59.172Z,62.81
2023-03-29T18:20:26.443Z,62.50
2023-03-29T18:22:53.637Z,62.66
2023-03-29T18:25:20.935Z,62.72
2023-03-29T18:27:48.004Z,62.96
2023-03-29T18:30:16.924Z,62.86
2023-03-29T18:32:44.249Z,63.41
2023-03-29T18:35:12.216Z,63.23
2023-03-29T18:37:39.506Z,63.20
2023-03-29T18:40:10.631Z,63.34
2023-03-29T18:42:37.736Z,63.79
2023-03-29T18:45:05.975Z,63.97
2023-03-29T18:47:33.383Z,64.22
2023-03-29T18:50:02.498Z,64.80
2023-03-29T18:52:29.582Z,64.84
2023-03-29T18:54:56.946Z,64.70
2023-03-29T18:57:24.057Z,65.08
2023-03-29T18:59:52.138Z,64.71
2023-03-29T19:02:19.346Z,64.39
2023-03-29T19:04:46.704Z,64.16
2023-03-29T19:07:14.210Z,64.19
2023-03-29T19:09:42.007Z,63.98
2023-03-29T19:12:09.330Z,64.30
2023-03-29T19:14:38.551Z,63.97
2023-03-29T19:17:05.564Z,64.22
2023-03-29T19:19:32.850Z,64.21
2023-03-29T19:22:00.681Z,64.09
2023-03-29T19:24:28.801Z,64.07
2023-03-29T19:26:56.626Z,64.54
2023-03-29T19:29:24.214Z,64.42
2023-03-29T19:31:54.245Z,64.67
2023-03-29T19:34:24.678Z,64.86
2023-03-29T19:36:53.591Z,65.15
2023-03-29T19:39:21.214Z,65.93
2023-03-29T19:41:48.490Z,65.84
2023-03-29T19:44:16.289Z,65.39
2023-03-29T19:46:43.369Z,65.39
2023-03-29T19:49:13.797Z,65.23
2023-03-29T19:51:42.174Z,65.56
2023-03-29T19:54:12.211Z,65.63
2023-03-29T19:56:39.256Z,65.79
2023-03-29T19:59:07.018Z,66.12
2023-03-29T20:01:34.017Z,66.12
2023-03-29T20:04:02.636Z,65.80
2023-03-29T20:06:29.911Z,65.38
2023-03-29T20:08:57.817Z,65.29
2023-03-29T20:11:25.001Z,65.49
2023-03-29T20:13:53.001Z,65.87
2023-03-29T20:16:20.098Z,66.04
2023-03-29T20:18:47.464Z,66.50
2023-03-29T20:21:16.843Z,66.95
2023-03-29T20:23:44.983Z,67.24
2023-03-29T20:26:12.197Z,67.67
2023-03-29T20:28:39.732Z,67.71
2023-03-29T20:31:08.153Z,67.78
2023-03-29T20:33:35.550Z,67.96
2023-03-29T20:36:03.341Z,68.00
2023-03-29T20:38:30.791Z,68.07
2023-03-29T20:40:59.205Z,68.18
2023-03-29T20:43:26.650Z,67.93
2023-03-29T20:45:54.525Z,67.35
2023-03-29T20:48:24.387Z,67.29
2023-03-29T20:50:51.951Z,67.45
2023-03-29T20:53:20.820Z,67.45
2023-03-29T20:55:48.351Z,67.71
2023-03-29T20:58:16.150Z,67.55
2023-03-29T21:00:43.816Z,67.67
2023-03-29T21:03:11.503Z,67.42
2023-03-29T21:05:39.212Z,66.87
2023-03-29T21:08:06.556Z,66.29
2023-03-29T21:10:33.562Z,66.15
2023-03-29T21:13:02.856Z,66.44
2023-03-29T21:15:31.237Z,65.94
2023-03-29T21:17:58.984Z,65.78
2023-03-29T21:20:27.730Z,66.13
2023-03-29T21:22:54.985Z,66.59
2023-03-29T21:25:22.447Z,66.47
2023-03-29T21:27:49.998Z,66.82
2023-03-29T21:30:17.332Z,67.09
2023-03-29T21:32:45.403Z,67.10
2023-03-29T21:35:13.364Z,66.98
2023-03-29T21:37:41.071Z,66.53
2023-03-29T21:40:10.792Z,66.44
2023-03-29T21:42:38.711Z,66.45
2023-03-29T21:45:06.142Z,66.30
2023-03-29T21:47:37.869Z,66.00
2023-03-29T21:50:05.817Z,65.98
2023-03-29T21:52:33.148Z,65.44
2023-03-29T21:55:00.359Z,64.97
2023-03-29T21:57:27.938Z,64.93
2023-03-29T21:59:54.856Z,64.80
2023-03-29T22:02:22.366Z,64.83
2023-03-29T22:04:49.622Z,64.62
2023-03-29T22:07:17.409Z,64.12
2023-03-29T22:09:44.765Z,63.68
2023-03-29T22:12:12.394Z,63.61
2023-03-29T22:14:39.452Z,63.09
2023-03-29T22:17:07.056Z,63.20
2023-03-29T22:19:39.248Z,63.16
2023-03-29T22:22:13.967Z,63.17
2023-03-29T22:24:42.321Z,63.40
2023-03-29T22:27:11.228Z,64.14
2023-03-29T22:29:38.195Z,64.03
2023-03-29T22:32:06.050Z,63.39
2023-03-29T22:34:33.370Z,63.42
2023-03-29T22:37:00.671Z,63.27
2023-03-29T22:39:27.753Z,63.25
2023-03-29T22:41:54.969Z,63.45
2023-03-29T22:44:21.993Z,63.23
2023-03-29T22:46:49.656Z,63.35
2023-03-29T22:49:17.688Z,63.45
2023-03-29T22:51:44.915Z,63.37
2023-03-29T22:54:12.283Z,63.74
2023-03-29T22:56:39.527Z,63.27
2023-03-29T22:59:06.702Z,63.85
2023-03-29T23:01:34.292Z,63.34
2023-03-29T23:04:01.408Z,63.57
2023-03-29T23:06:28.767Z,63.63
2023-03-29T23:08:56.155Z,63.54
2023-03-29T23:11:23.489Z,63.64
2023-03-29T23:13:50.991Z,63.92
2023-03-29T23:16:21.367Z,64.50
2023-03-29T23:18:48.671Z,64.62
2023-03-29T23:21:16.334Z,65.02
2023-03-29T23:23:43.710Z,65.11
2023-03-29T23:26:11.973Z,64.86
2023-03-29T23:28:38.974Z,65.19
2023-03-29T23:31:13.040Z,65.46
2023-03-29T23:33:42.757Z,65.72
2023-03-29T23:36:13.817Z,65.47
2023-03-29T23:38:42.517Z,65.09
2023-03-29T23:41:12.909Z,65.53
2023-03-29T23:43:41.929Z,65.00
2023-03-29T23:46:15.403Z,64.63
2023-03-29T23:48:47.358Z,64.84
2023-03-29T23:51:18.210Z,65.54
2023-03-29T23:53:45.351Z,66.31
2023-03-29T23:56:13.316Z,66.37
2023-03-29T23:58:40.312Z,66.95
